^^
Saratoga-Weather Station Historical Data
Daily Summary for July 20, 2021 Units:  English    Metric   Both
Daily Weekly Monthly Yearly Custom
  High: Low: Average:
Temperature: 64.8 °F 61.3 °F 62.6 °F
Dew Point: 56.1 °F 55 °F 55.6 °F
Humidity: 81% 73% 78%
Wind Speed: 2mph 0mph 0.5mph
Wind Gust: 3mph - -
Wind- - SSE
Pressure: 30.1 in 30.1 in -
Precipitation: 0 in    
Historical Graphs
 
 
Tabular Data for July 20, 2021
Time Temperature Dew Point Pressure Wind Wind Speed Wind Gust Humidity Rainfall Rate (Hourly) solar
00:04 64.8 °F 55.9 °F 30.1 in Calm     73% 0 in 0 W/m2
00:09 64.6 °F 56.1 °F 30.1 in Calm   1 mph 74% 0 in 0 W/m2
00:14 64.2 °F 55.8 °F 30.1 in Calm   1 mph 74% 0 in 0 W/m2
00:19 64 °F 55.9 °F 30.1 in SE 0.9 mph 1 mph 75% 0 in 0 W/m2
00:24 63.9 °F 56.1 °F 30.1 in SE 0.9 mph 1 mph 76% 0 in 0 W/m2
00:29 63.5 °F 55.8 °F 30.1 in Calm   1 mph 76% 0 in 0 W/m2
00:34 63.3 °F 55.9 °F 30.1 in Calm   1 mph 77% 0 in 0 W/m2
00:39 63.1 °F 55.8 °F 30.1 in Calm   1 mph 77% 0 in 0 W/m2
00:44 62.8 °F 55.8 °F 30.1 in Calm   1 mph 78% 0 in 0 W/m2
00:49 62.4 °F 55.4 °F 30.1 in SE 0.9 mph 1 mph 78% 0 in 0 W/m2
00:54 62.4 °F 55.4 °F 30.1 in SE 0.9 mph 1 mph 78% 0 in 0 W/m2
00:59 62.4 °F 55.4 °F 30.1 in ESE 0.9 mph 1 mph 78% 0 in 0 W/m2
01:05 62.4 °F 55.4 °F 30.1 in Calm     78% 0 in 0 W/m2
01:10 62.4 °F 55.4 °F 30.1 in Calm   2 mph 78% 0 in 0 W/m2
01:15 62.4 °F 55.4 °F 30.1 in Calm   2 mph 78% 0 in 0 W/m2
01:20 62.4 °F 55.8 °F 30.1 in NE 0.9 mph 1 mph 79% 0 in 0 W/m2
01:25 62.4 °F 55.4 °F 30.1 in Calm   2 mph 78% 0 in 0 W/m2
01:30 62.4 °F 55.4 °F 30.1 in East 2 mph 2 mph 78% 0 in 0 W/m2
01:35 62.4 °F 55.4 °F 30.1 in ENE 0.9 mph 2 mph 78% 0 in 0 W/m2
01:40 62.4 °F 55.8 °F 30.1 in Calm   1 mph 79% 0 in 0 W/m2
01:45 62.2 °F 55.6 °F 30.1 in Calm   1 mph 79% 0 in 0 W/m2
01:50 62.1 °F 55.4 °F 30.1 in Calm   3 mph 79% 0 in 0 W/m2
01:55 61.9 °F 55.6 °F 30.1 in WNW 0.9 mph 2 mph 80% 0 in 0 W/m2
02:00 61.7 °F 55.4 °F 30.1 in WSW 0.9 mph 2 mph 80% 0 in 0 W/m2
02:05 61.5 °F 55.6 °F 30.1 in ENE 2 mph 3 mph 81% 0 in 0 W/m2
02:10 61.3 °F 55 °F 30.1 in Calm   2 mph 80% 0 in 0 W/m2
02:15 61.3 °F 55 °F 30.1 in WSW 0.9 mph 1 mph 80% 0 in 0 W/m2
02:20 61.5 °F 55.2 °F 30.1 in Calm   2 mph 80% 0 in 0 W/m2
02:25 61.3 °F 55.4 °F 30.1 in WNW 0.9 mph 2 mph 81% 0 in 0 W/m2
Juneau County Weather
Compliments of Weather Underground - 2 mb